createdAt,value
2023-01-23T00:00:39.321Z,46.13
2023-01-23T00:03:06.107Z,42.33
2023-01-23T00:05:33.024Z,42.17
2023-01-23T00:07:59.760Z,41.10
2023-01-23T00:10:26.527Z,43.00
2023-01-23T00:12:54.619Z,48.00
2023-01-23T00:15:21.354Z,43.80
2023-01-23T00:17:48.745Z,44.53
2023-01-23T00:20:15.903Z,46.90
2023-01-23T00:22:42.649Z,36.77
2023-01-23T00:25:09.525Z,39.70
2023-01-23T00:27:36.423Z,41.77
2023-01-23T00:30:03.802Z,47.73
2023-01-23T00:32:30.619Z,48.90
2023-01-23T00:34:57.511Z,41.00
2023-01-23T00:37:24.257Z,47.17
2023-01-23T00:39:51.197Z,45.00
2023-01-23T00:42:18.245Z,45.43
2023-01-23T00:44:45.098Z,42.33
2023-01-23T00:47:11.897Z,44.57
2023-01-23T00:49:38.736Z,40.77
2023-01-23T00:52:05.596Z,38.33
2023-01-23T00:54:32.428Z,46.33
2023-01-23T00:56:59.257Z,42.20
2023-01-23T00:59:26.104Z,46.90
2023-01-23T01:01:53.442Z,39.07
2023-01-23T01:04:20.394Z,48.83
2023-01-23T01:06:47.178Z,42.33
2023-01-23T01:09:14.048Z,44.00
2023-01-23T01:11:40.896Z,48.70
2023-01-23T01:14:07.770Z,50.40
2023-01-23T01:16:34.569Z,49.30
2023-01-23T01:19:02.124Z,47.50
2023-01-23T01:21:29.298Z,53.00
2023-01-23T01:23:56.073Z,47.90
2023-01-23T01:26:23.286Z,50.73
2023-01-23T01:28:50.631Z,48.70
2023-01-23T01:31:17.538Z,46.57
2023-01-23T01:33:45.092Z,41.63
2023-01-23T01:36:13.014Z,51.07
2023-01-23T01:38:39.802Z,56.33
2023-01-23T01:41:07.040Z,51.73
2023-01-23T01:43:34.698Z,49.67
2023-01-23T01:46:17.262Z,43.87
2023-01-23T01:48:49.967Z,49.00
2023-01-23T01:51:16.806Z,48.87
2023-01-23T01:53:46.698Z,49.73
2023-01-23T01:56:14.527Z,52.47
2023-01-23T01:58:43.217Z,47.30
2023-01-23T02:01:10.254Z,42.37
2023-01-23T02:03:37.520Z,45.40
2023-01-23T02:06:04.766Z,49.43
2023-01-23T02:08:37.772Z,45.37
2023-01-23T02:11:05.416Z,42.20
2023-01-23T02:13:40.027Z,42.10
2023-01-23T02:16:08.579Z,45.07
2023-01-23T02:18:37.182Z,48.93
2023-01-23T02:21:06.433Z,42.93
2023-01-23T02:23:33.583Z,42.10
2023-01-23T02:26:01.619Z,46.63
2023-01-23T02:28:56.262Z,46.00
2023-01-23T02:31:27.427Z,42.47
2023-01-23T02:33:59.281Z,49.20
2023-01-23T02:36:30.120Z,44.40
2023-01-23T02:39:05.642Z,51.23
2023-01-23T02:41:35.132Z,50.33
2023-01-23T02:44:28.393Z,46.07
2023-01-23T02:47:12.560Z,49.73
2023-01-23T02:49:43.462Z,45.10
2023-01-23T02:52:10.887Z,49.47
2023-01-23T02:54:38.054Z,45.00
2023-01-23T02:57:05.118Z,45.57
2023-01-23T02:59:50.503Z,42.47
2023-01-23T03:02:18.103Z,49.03
2023-01-23T03:04:45.069Z,48.53
2023-01-23T03:07:11.827Z,49.30
2023-01-23T03:09:38.855Z,42.77
2023-01-23T03:12:05.893Z,45.67
2023-01-23T03:14:32.701Z,40.33
2023-01-23T03:16:59.635Z,42.30
2023-01-23T03:19:33.529Z,39.27
2023-01-23T03:22:00.888Z,46.47
2023-01-23T03:24:27.818Z,55.87
2023-01-23T03:26:54.672Z,43.37
2023-01-23T03:29:44.532Z,46.00
2023-01-23T03:32:15.192Z,41.83
2023-01-23T03:34:43.084Z,36.07
2023-01-23T03:37:11.138Z,40.23
2023-01-23T03:39:57.582Z,35.83
2023-01-23T03:42:25.473Z,39.93
2023-01-23T03:44:54.059Z,34.50
2023-01-23T03:47:26.530Z,40.97
2023-01-23T03:49:55.096Z,38.10
2023-01-23T03:52:22.093Z,30.17
2023-01-23T03:54:49.097Z,37.90
2023-01-23T03:57:15.993Z,39.07
2023-01-23T04:00:03.361Z,36.40
2023-01-23T04:02:40.458Z,33.17
2023-01-23T04:05:09.808Z,32.93
2023-01-23T04:07:36.852Z,33.27
2023-01-23T04:10:03.985Z,33.77
2023-01-23T04:12:30.984Z,31.60
2023-01-23T04:14:58.162Z,38.67
2023-01-23T04:17:25.025Z,35.57
2023-01-23T04:19:52.325Z,38.23
2023-01-23T04:22:19.112Z,35.30
2023-01-23T04:24:47.972Z,37.37
2023-01-23T04:27:15.019Z,35.03
2023-01-23T04:29:42.143Z,34.90
2023-01-23T04:32:10.326Z,41.47
2023-01-23T04:34:44.176Z,37.77
2023-01-23T04:37:11.008Z,39.87
2023-01-23T04:39:39.044Z,37.13
2023-01-23T04:42:05.907Z,39.37
2023-01-23T04:44:50.970Z,35.23
2023-01-23T04:47:37.740Z,36.67
2023-01-23T04:50:09.346Z,40.17
2023-01-23T04:52:36.235Z,38.00
2023-01-23T04:55:03.669Z,30.77
2023-01-23T04:57:31.023Z,34.07
2023-01-23T05:00:07.200Z,36.33
2023-01-23T05:02:34.129Z,34.60
2023-01-23T05:05:01.374Z,32.93
2023-01-23T05:07:28.636Z,31.43
2023-01-23T05:10:06.589Z,32.23
2023-01-23T05:12:34.557Z,40.07
2023-01-23T05:15:02.988Z,41.37
2023-01-23T05:17:30.425Z,37.43
2023-01-23T05:19:57.284Z,41.77
2023-01-23T05:22:24.131Z,39.83
2023-01-23T05:24:51.086Z,43.97
2023-01-23T05:27:17.978Z,39.43
2023-01-23T05:29:47.728Z,38.97
2023-01-23T05:32:19.978Z,37.77
2023-01-23T05:35:08.352Z,36.80
2023-01-23T05:37:37.373Z,36.43
2023-01-23T05:40:06.904Z,34.67
2023-01-23T05:42:53.993Z,34.67
2023-01-23T05:45:50.263Z,37.63
2023-01-23T05:48:52.859Z,38.33
2023-01-23T05:51:21.375Z,44.77
2023-01-23T05:53:48.602Z,47.87
2023-01-23T05:56:17.124Z,47.60
2023-01-23T05:59:05.545Z,43.10
2023-01-23T06:01:46.704Z,47.87
2023-01-23T06:04:32.042Z,44.93
2023-01-23T06:07:13.400Z,44.20
2023-01-23T06:09:40.452Z,48.67
2023-01-23T06:12:07.458Z,46.43
2023-01-23T06:14:34.252Z,45.83
2023-01-23T06:17:01.176Z,44.03
2023-01-23T06:19:28.148Z,44.13
2023-01-23T06:21:55.144Z,38.97
2023-01-23T06:24:22.517Z,38.97
2023-01-23T06:26:50.038Z,36.23
2023-01-23T06:29:17.421Z,34.73
2023-01-23T06:31:46.286Z,40.73
2023-01-23T06:34:14.239Z,39.63
2023-01-23T06:36:52.145Z,31.33
2023-01-23T06:39:19.414Z,33.17
2023-01-23T06:41:47.419Z,37.30
2023-01-23T06:44:19.804Z,35.33
2023-01-23T06:46:46.882Z,37.23
2023-01-23T06:49:13.813Z,31.77
2023-01-23T06:51:40.768Z,33.93
2023-01-23T06:54:10.690Z,39.77
2023-01-23T06:56:38.697Z,31.40
2023-01-23T06:59:07.920Z,33.43
2023-01-23T07:01:35.231Z,28.37
2023-01-23T07:04:24.329Z,26.93
2023-01-23T07:06:52.043Z,29.77
2023-01-23T07:09:20.005Z,28.40
2023-01-23T07:11:58.962Z,34.33
2023-01-23T07:14:28.789Z,36.17
2023-01-23T07:16:56.703Z,32.20
2023-01-23T07:19:24.554Z,39.83
2023-01-23T07:21:51.948Z,34.47
2023-01-23T07:24:18.777Z,42.77
2023-01-23T07:26:45.580Z,41.67
2023-01-23T07:29:12.388Z,42.33
2023-01-23T07:31:39.250Z,41.47
2023-01-23T07:34:06.133Z,38.70
2023-01-23T07:36:32.872Z,42.80
2023-01-23T07:38:59.730Z,44.63
2023-01-23T07:41:26.508Z,41.63
2023-01-23T07:43:53.424Z,44.07
2023-01-23T07:46:20.749Z,44.90
2023-01-23T07:48:47.560Z,41.37
2023-01-23T07:51:15.657Z,42.80
2023-01-23T07:53:42.502Z,49.13
2023-01-23T07:56:09.316Z,50.60
2023-01-23T07:58:36.160Z,49.37
2023-01-23T08:01:10.117Z,48.70
2023-01-23T08:03:37.156Z,51.00
2023-01-23T08:06:04.110Z,57.53
2023-01-23T08:08:30.935Z,48.77
2023-01-23T08:10:57.770Z,44.37
2023-01-23T08:13:24.665Z,48.80
2023-01-23T08:15:53.511Z,52.67
2023-01-23T08:18:20.434Z,45.43
2023-01-23T08:20:52.793Z,54.33
2023-01-23T08:23:19.579Z,51.63
2023-01-23T08:25:46.474Z,46.47
2023-01-23T08:28:13.241Z,52.50
2023-01-23T08:30:40.137Z,51.07
2023-01-23T08:33:06.870Z,52.33
2023-01-23T08:35:33.676Z,50.67
2023-01-23T08:38:00.555Z,53.87
2023-01-23T08:40:27.350Z,55.70
2023-01-23T08:42:55.608Z,44.83
2023-01-23T08:45:23.796Z,50.77
2023-01-23T08:47:50.594Z,49.47
2023-01-23T08:50:17.739Z,46.23
2023-01-23T08:52:45.111Z,47.20
2023-01-23T08:55:12.948Z,47.80
2023-01-23T08:57:39.688Z,47.43
2023-01-23T09:00:06.846Z,51.87
2023-01-23T09:02:33.678Z,49.37
2023-01-23T09:05:00.603Z,50.27
2023-01-23T09:07:27.751Z,52.27
2023-01-23T09:09:55.227Z,57.73
2023-01-23T09:12:22.033Z,44.03
2023-01-23T09:14:48.886Z,50.20
2023-01-23T09:17:15.620Z,49.17
2023-01-23T09:19:42.388Z,49.17
2023-01-23T09:22:09.258Z,52.10
2023-01-23T09:24:36.112Z,50.83
2023-01-23T09:27:02.951Z,49.93
2023-01-23T09:29:29.802Z,52.97
2023-01-23T09:31:58.751Z,53.57
2023-01-23T09:34:25.664Z,57.33
2023-01-23T09:36:52.546Z,51.17
2023-01-23T09:39:19.284Z,48.77
2023-01-23T09:41:46.440Z,46.40
2023-01-23T09:44:18.621Z,50.93
2023-01-23T09:46:47.968Z,46.30
2023-01-23T09:49:21.136Z,50.30
2023-01-23T09:52:08.263Z,52.37
2023-01-23T09:54:40.848Z,48.17
2023-01-23T09:57:13.578Z,52.67
2023-01-23T09:59:53.964Z,54.67
2023-01-23T10:02:27.064Z,56.70
2023-01-23T10:04:54.444Z,51.37
2023-01-23T10:07:27.563Z,61.27
2023-01-23T10:09:54.317Z,51.77
2023-01-23T10:12:47.178Z,53.80
2023-01-23T10:15:22.488Z,50.80
2023-01-23T10:17:55.601Z,58.17
2023-01-23T10:20:30.541Z,54.73
2023-01-23T10:23:05.238Z,48.70
2023-01-23T10:25:33.477Z,52.60
2023-01-23T10:28:02.396Z,58.53
2023-01-23T10:30:31.591Z,53.97
2023-01-23T10:33:02.471Z,56.77
2023-01-23T10:35:32.432Z,56.27
2023-01-23T10:38:02.219Z,68.50
2023-01-23T10:40:47.845Z,57.43
2023-01-23T10:43:21.602Z,64.03
2023-01-23T10:45:49.430Z,69.00
2023-01-23T10:48:34.745Z,68.13
2023-01-23T10:51:01.565Z,70.00
2023-01-23T10:53:28.379Z,69.13
2023-01-23T10:55:59.661Z,67.97
2023-01-23T10:58:33.371Z,61.20
2023-01-23T11:01:00.613Z,81.70
2023-01-23T11:03:29.802Z,83.23
2023-01-23T11:06:04.695Z,71.97
2023-01-23T11:08:33.368Z,72.60
2023-01-23T11:11:27.050Z,72.83
2023-01-23T11:14:11.600Z,66.63
2023-01-23T11:16:38.411Z,71.77
2023-01-23T11:19:08.120Z,69.83
2023-01-23T11:21:35.950Z,70.47
2023-01-23T11:24:20.408Z,70.13
2023-01-23T11:26:58.033Z,68.37
2023-01-23T11:29:26.067Z,67.10
2023-01-23T11:31:56.002Z,72.17
2023-01-23T11:34:25.451Z,64.80
2023-01-23T11:37:02.831Z,74.07
2023-01-23T11:39:48.213Z,75.87
2023-01-23T11:42:16.197Z,73.27
2023-01-23T11:44:46.406Z,69.20
2023-01-23T11:47:17.296Z,61.80
2023-01-23T11:49:46.917Z,62.83
2023-01-23T11:52:16.611Z,68.07
2023-01-23T11:54:46.499Z,70.37
2023-01-23T11:57:27.394Z,71.80
2023-01-23T11:59:54.182Z,59.23
2023-01-23T12:02:38.251Z,63.43
2023-01-23T12:05:27.706Z,67.83
2023-01-23T12:08:09.183Z,70.03
2023-01-23T12:10:46.221Z,73.47
2023-01-23T12:13:22.286Z,79.60
2023-01-23T12:16:00.955Z,68.10
2023-01-23T12:18:30.661Z,74.27
2023-01-23T12:21:05.698Z,79.20
2023-01-23T12:23:32.517Z,79.37
2023-01-23T12:26:16.652Z,74.27
2023-01-23T12:28:43.581Z,83.17
2023-01-23T12:31:16.252Z,72.47
2023-01-23T12:33:43.134Z,73.57
2023-01-23T12:36:16.047Z,73.00
2023-01-23T12:38:45.858Z,72.67
2023-01-23T12:41:22.653Z,79.73
2023-01-23T12:44:12.898Z,62.77
2023-01-23T12:46:43.576Z,81.53
2023-01-23T12:49:30.606Z,76.70
2023-01-23T12:52:06.394Z,73.47
2023-01-23T12:55:05.636Z,73.37
2023-01-23T12:58:00.353Z,67.23
2023-01-23T13:00:35.443Z,73.43
2023-01-23T13:03:22.702Z,82.17
2023-01-23T13:05:52.413Z,77.73
2023-01-23T13:08:58.056Z,75.83
2023-01-23T13:11:55.219Z,72.47
2023-01-23T13:14:36.760Z,70.90
2023-01-23T13:17:29.401Z,75.23
2023-01-23T13:20:31.431Z,69.57
2023-01-23T13:23:18.172Z,69.83
2023-01-23T13:25:45.328Z,69.97
2023-01-23T13:28:44.586Z,71.80
2023-01-23T13:31:31.839Z,68.83
2023-01-23T13:34:10.183Z,69.40
2023-01-23T13:36:42.052Z,77.00
2023-01-23T13:39:18.180Z,80.60
2023-01-23T13:41:45.786Z,65.33
2023-01-23T13:44:42.172Z,73.20
2023-01-23T14:24:43.378Z,79.27
2023-01-23T14:27:21.514Z,77.27
2023-01-23T14:30:02.305Z,80.67
2023-01-23T14:32:31.754Z,71.13
2023-01-23T14:34:58.611Z,74.50
2023-01-23T14:37:26.577Z,81.20
2023-01-23T14:39:54.238Z,85.17
2023-01-23T14:42:31.540Z,81.83
2023-01-23T14:45:00.908Z,86.00
2023-01-23T14:47:37.954Z,71.87
2023-01-23T14:50:09.530Z,66.27
2023-01-23T14:52:36.475Z,62.50
2023-01-23T14:55:08.088Z,67.63
2023-01-23T14:57:36.072Z,63.67
2023-01-23T15:00:03.744Z,72.77
2023-01-23T15:02:33.708Z,64.00
2023-01-23T15:05:16.700Z,59.30
2023-01-23T15:08:03.866Z,62.57
2023-01-23T15:10:44.856Z,62.60
2023-01-23T15:13:20.738Z,68.90
2023-01-23T15:15:52.438Z,65.17
2023-01-23T15:18:29.803Z,68.83
2023-01-23T15:20:57.672Z,61.37
2023-01-23T15:23:28.505Z,63.20
2023-01-23T15:26:14.214Z,52.53
2023-01-23T15:28:56.241Z,58.90
2023-01-23T15:31:32.395Z,57.87
2023-01-23T15:34:15.634Z,66.07
2023-01-23T15:36:54.800Z,74.67
2023-01-23T15:39:32.316Z,72.17
2023-01-23T15:42:22.892Z,59.80
2023-01-23T15:44:50.292Z,84.97
2023-01-23T15:47:17.107Z,106.97
2023-01-23T15:49:44.057Z,78.73
2023-01-23T15:52:20.333Z,67.30
2023-01-23T15:54:48.061Z,65.10
2023-01-23T15:57:14.935Z,67.17
2023-01-23T15:59:41.954Z,70.10
2023-01-23T16:02:29.157Z,64.43
2023-01-23T16:04:57.257Z,66.97
2023-01-23T16:07:30.860Z,67.43
2023-01-23T16:09:57.935Z,73.73
2023-01-23T16:12:27.232Z,70.63
2023-01-23T16:14:55.005Z,80.37
2023-01-23T16:17:21.839Z,74.47
2023-01-23T16:19:48.976Z,63.60
2023-01-23T16:22:21.204Z,70.50
2023-01-23T16:24:48.120Z,66.97
2023-01-23T16:27:17.281Z,72.23
2023-01-23T16:29:44.855Z,62.67
2023-01-23T16:32:11.853Z,61.57
2023-01-23T16:34:38.875Z,64.50
2023-01-23T16:37:06.488Z,69.37
2023-01-23T16:39:33.765Z,57.17
2023-01-23T16:42:00.647Z,58.10
2023-01-23T16:44:27.698Z,70.30
2023-01-23T16:46:54.545Z,71.77
2023-01-23T16:49:21.569Z,73.03
2023-01-23T16:51:56.344Z,73.30
2023-01-23T16:54:23.223Z,71.80
2023-01-23T16:56:53.770Z,68.13
2023-01-23T16:59:35.683Z,84.17
2023-01-23T17:02:06.629Z,74.13
2023-01-23T17:04:33.446Z,68.00
2023-01-23T17:07:00.318Z,60.10
2023-01-23T17:09:27.112Z,56.40
2023-01-23T17:11:55.086Z,66.70
2023-01-23T17:14:30.141Z,75.73
2023-01-23T17:17:07.298Z,83.57
2023-01-23T17:19:38.152Z,62.73
2023-01-23T17:22:06.073Z,75.37
2023-01-23T17:24:32.867Z,59.73
2023-01-23T17:26:59.668Z,55.20
2023-01-23T17:29:26.618Z,74.00
2023-01-23T17:31:53.578Z,63.27
2023-01-23T17:34:21.902Z,56.13
2023-01-23T17:36:49.139Z,67.10
2023-01-23T17:39:15.912Z,54.57
2023-01-23T17:41:44.124Z,56.17
2023-01-23T17:44:10.943Z,60.10
2023-01-23T17:46:39.520Z,55.30
2023-01-23T17:49:24.534Z,50.60
2023-01-23T17:51:51.527Z,47.40
2023-01-23T17:54:19.352Z,53.37
2023-01-23T17:56:46.183Z,54.10
2023-01-23T17:59:12.958Z,49.33
2023-01-23T18:01:39.857Z,45.23
2023-01-23T18:04:19.836Z,41.97
2023-01-23T18:06:47.087Z,49.90
2023-01-23T18:09:14.390Z,50.53
2023-01-23T18:11:43.936Z,50.80
2023-01-23T18:14:22.776Z,52.97
2023-01-23T18:16:50.431Z,47.03
2023-01-23T18:19:17.672Z,41.30
2023-01-23T18:21:48.818Z,51.13
2023-01-23T18:24:27.557Z,95.03
2023-01-23T18:27:14.173Z,46.97
2023-01-23T18:29:40.963Z,46.40
2023-01-23T18:32:27.617Z,49.53
2023-01-23T18:35:08.158Z,52.03
2023-01-23T18:37:47.186Z,49.07
2023-01-23T18:40:13.931Z,47.67
2023-01-23T18:42:59.570Z,44.77
2023-01-23T18:45:27.722Z,50.57
2023-01-23T18:47:54.845Z,43.77
2023-01-23T18:50:27.131Z,44.73
2023-01-23T18:53:29.691Z,47.47
2023-01-23T18:56:25.138Z,43.93
2023-01-23T18:59:12.189Z,45.00
2023-01-23T19:01:52.371Z,39.57
2023-01-23T19:04:21.003Z,42.60
2023-01-23T19:06:48.048Z,41.50
2023-01-23T19:09:18.828Z,39.37
2023-01-23T19:12:07.595Z,48.63
2023-01-23T19:14:55.167Z,42.70
2023-01-23T19:17:28.068Z,43.20
2023-01-23T19:20:00.683Z,46.27
2023-01-23T19:22:30.238Z,43.17
2023-01-23T19:24:57.201Z,45.87
2023-01-23T19:27:24.137Z,42.73
2023-01-23T19:29:51.028Z,47.40
2023-01-23T19:32:18.093Z,41.40
2023-01-23T19:34:44.935Z,37.03
2023-01-23T19:37:12.731Z,40.17
2023-01-23T19:39:39.491Z,43.20
2023-01-23T19:42:06.439Z,42.50
2023-01-23T19:44:33.866Z,42.03
2023-01-23T19:47:03.296Z,42.53
2023-01-23T19:49:30.637Z,39.03
2023-01-23T19:51:57.496Z,38.40
2023-01-23T19:54:24.602Z,43.83
2023-01-23T19:56:52.268Z,46.10
2023-01-23T19:59:19.183Z,41.20
2023-01-23T20:01:48.639Z,44.20
2023-01-23T20:04:20.896Z,39.03
2023-01-23T20:06:54.264Z,38.87
2023-01-23T20:09:21.288Z,41.27
2023-01-23T20:11:48.109Z,42.60
2023-01-23T20:14:15.046Z,43.97
2023-01-23T20:16:43.629Z,37.33
2023-01-23T20:19:14.553Z,49.43
2023-01-23T20:21:41.604Z,44.27
2023-01-23T20:24:08.614Z,44.90
2023-01-23T20:26:35.896Z,39.93
2023-01-23T20:29:04.283Z,38.43
2023-01-23T20:31:33.350Z,39.03
2023-01-23T20:34:00.435Z,41.80
2023-01-23T20:36:27.651Z,33.20
2023-01-23T20:38:56.285Z,39.93
2023-01-23T20:41:23.386Z,42.83
2023-01-23T20:43:50.423Z,41.17
2023-01-23T20:46:19.351Z,39.60
2023-01-23T20:48:46.231Z,35.20
2023-01-23T20:51:14.531Z,38.43
2023-01-23T20:53:41.864Z,38.03
2023-01-23T20:56:15.740Z,41.40
2023-01-23T20:59:02.056Z,39.17
2023-01-23T21:01:30.391Z,35.47
2023-01-23T21:03:57.531Z,37.43
2023-01-23T21:06:24.456Z,39.07
2023-01-23T21:08:51.230Z,33.90
2023-01-23T21:11:19.467Z,39.20
2023-01-23T21:13:50.769Z,41.17
2023-01-23T21:16:17.905Z,40.97
2023-01-23T21:18:47.044Z,39.87
2023-01-23T21:21:16.570Z,43.37
2023-01-23T21:23:45.801Z,37.73
2023-01-23T21:26:12.798Z,33.17
2023-01-23T21:28:39.667Z,36.33
2023-01-23T21:31:42.122Z,37.70
2023-01-23T21:34:10.875Z,40.37
2023-01-23T21:36:38.057Z,39.10
2023-01-23T21:39:05.618Z,39.90
2023-01-23T21:41:32.435Z,35.43
2023-01-23T21:43:59.339Z,40.80
2023-01-23T21:46:26.629Z,39.77
2023-01-23T21:48:53.527Z,44.07
2023-01-23T21:51:21.094Z,41.00
2023-01-23T21:53:48.763Z,43.27
2023-01-23T21:56:16.457Z,42.93
2023-01-23T21:58:43.401Z,38.50
2023-01-23T22:01:33.137Z,38.00
2023-01-23T22:04:05.024Z,38.50
2023-01-23T22:06:32.686Z,43.67
2023-01-23T22:08:59.855Z,37.93
2023-01-23T22:11:26.595Z,40.83
2023-01-23T22:13:53.431Z,42.53
2023-01-23T22:16:22.941Z,43.93
2023-01-23T22:18:55.333Z,38.77
2023-01-23T22:21:22.380Z,47.77
2023-01-23T22:23:49.170Z,40.40
2023-01-23T22:26:15.970Z,45.53
2023-01-23T22:28:42.905Z,42.03
2023-01-23T22:31:11.176Z,44.47
2023-01-23T22:33:40.863Z,44.83
2023-01-23T22:36:09.090Z,39.37
2023-01-23T22:38:35.913Z,39.13
2023-01-23T22:41:03.851Z,38.47
2023-01-23T22:43:30.670Z,42.60
2023-01-23T22:46:08.334Z,39.23
2023-01-23T22:48:35.919Z,37.63
2023-01-23T22:51:03.733Z,47.00
2023-01-23T22:53:32.088Z,39.63
2023-01-23T22:55:59.479Z,45.80
2023-01-23T22:58:27.024Z,45.03
2023-01-23T23:00:54.549Z,44.00
2023-01-23T23:03:21.820Z,46.03
2023-01-23T23:05:57.188Z,45.63
2023-01-23T23:08:24.214Z,46.53
2023-01-23T23:11:01.427Z,43.83
2023-01-23T23:13:28.895Z,46.10
2023-01-23T23:15:55.706Z,46.30
2023-01-23T23:18:22.697Z,41.23
2023-01-23T23:20:49.547Z,44.57
2023-01-23T23:23:16.429Z,46.00
2023-01-23T23:25:43.613Z,42.93
2023-01-23T23:28:10.681Z,53.57
2023-01-23T23:30:37.587Z,47.40
2023-01-23T23:33:04.858Z,47.83
2023-01-23T23:35:31.727Z,42.20
2023-01-23T23:37:58.616Z,39.77
2023-01-23T23:40:25.535Z,48.63
2023-01-23T23:42:52.406Z,50.53
2023-01-23T23:45:19.558Z,43.27
2023-01-23T23:47:46.532Z,43.80
2023-01-23T23:50:13.620Z,45.53
2023-01-23T23:52:41.370Z,39.93
2023-01-23T23:55:09.004Z,45.10
2023-01-23T23:57:35.802Z,42.30
